Terminal Aerodrome Forecast
Issued by NWS Sterling, VA

Current Version | Previous Version | Graphics & Text | Print | Product List | Glossary On
Versions: 1 2 3 4 5 6 7 8 9 10 11 12 13 14 15 16 17 18 19 20 21 22
726
FTUS41 KLWX 062058 AAA
TAFIAD
TAF AMD
KIAD 062058Z 0621/0724 21008KT P6SM SCT180 BKN250
     FM070100 VRB03KT P6SM SCT150
     FM071400 01008KT P6SM SCT200=

USA.gov is the U.S. government's official web portal to all federal, state and local government web resources and services.